»·PEaware :: N103K 65S-KHLN

N103K :: 65S-KHLN

FLIGHT INFORMATION

Flight Status: Arrived
Operator: Privately registered:
United States
More flights under this callsign
Pilot: Andrew C. (28419)
Aircraft: SOCATA TBM-900
(TBM9)
More flights by this aircraft type
Origin: 65S Boundary Co
United States
Destination: KHLN Helena Regl
United States
More flights between these airports :: More routes between these airports
Route: DCT
File this flight plan on PilotEdge
Remarks:
Altitude:
(Current/Filed)
17,500ft
Speed:
(Current/Filed)
300kts
Departed: 25-Oct-20 08:48 AM
Arrived: 25-Oct-20 09:44 AM
Distance/Time
Traveled:
216nm/0:56
Distance/Time
To Go:
Arrived

Flight Plot

Page will automatically refresh every two minutes.

Flight plan parsing failed; only flown route is shown


Map Options




Map Legend


Flown Route
Filed Route
Departure Airport
Arrival Airport
Navaid (VOR, NDB)
Fix

Horizontal Profiles

Position Reports

Time Latitude Longitude Heading Altitude Ground
Speed
25-Oct-20 08:39 48.730366 -116.291664 121 2336ft 0kts
25-Oct-20 08:40 48.730366 -116.291664 121 2336ft 0kts
25-Oct-20 08:41 48.730366 -116.291663 121 2336ft 0kts
25-Oct-20 08:42 48.730366 -116.291664 121 2336ft 0kts
25-Oct-20 08:43 48.730366 -116.291664 121 2336ft 0kts
25-Oct-20 08:44 48.730607 -116.290751 117 2337ft 0kts
25-Oct-20 08:45 48.730607 -116.290751 118 2337ft 0kts
25-Oct-20 08:46 48.730375 -116.290242 128 2337ft 13kts
25-Oct-20 08:47 48.709516 -116.300547 145 3748ft 129kts
25-Oct-20 08:48 48.701272 -116.247916 109 6576ft 131kts
25-Oct-20 08:49 48.682614 -116.200089 120 9089ft 135kts
25-Oct-20 08:50 48.660596 -116.151723 113 11945ft 142kts
25-Oct-20 08:51 48.638216 -116.102513 110 14923ft 145kts
25-Oct-20 08:52 48.614780 -116.051024 109 17520ft 170kts
25-Oct-20 08:53 48.578684 -115.972250 114 17521ft 259kts
25-Oct-20 08:54 48.536071 -115.879714 115 17509ft 273kts
25-Oct-20 08:56 48.492261 -115.784806 115 17511ft 275kts
25-Oct-20 08:57 48.448212 -115.689684 115 17511ft 276kts
25-Oct-20 08:58 48.403957 -115.594464 115 17508ft 277kts
25-Oct-20 08:59 48.359486 -115.499105 115 17510ft 277kts
25-Oct-20 09:00 48.314620 -115.403234 115 17511ft 277kts
25-Oct-20 09:01 48.268686 -115.305427 116 17510ft 277kts
25-Oct-20 09:02 48.223939 -115.210483 116 17514ft 279kts
25-Oct-20 09:03 48.178910 -115.115302 116 17498ft 279kts
25-Oct-20 09:04 48.133791 -115.020222 116 17479ft 280kts
25-Oct-20 09:05 48.088578 -114.925289 116 17461ft 279kts
25-Oct-20 09:06 48.043622 -114.831262 116 17462ft 278kts
25-Oct-20 09:07 47.998604 -114.737393 117 17466ft 277kts
25-Oct-20 09:08 47.953530 -114.643747 116 17458ft 275kts
25-Oct-20 09:09 47.908826 -114.551177 116 17451ft 274kts
25-Oct-20 09:10 47.864315 -114.459323 116 17435ft 273kts
25-Oct-20 09:10 47.827575 -114.383742 116 17603ft 270kts
25-Oct-20 09:12 47.775836 -114.277623 117 17609ft 273kts
25-Oct-20 09:12 47.738578 -114.201479 117 17609ft 273kts
25-Oct-20 09:14 47.686312 -114.095017 117 17613ft 273kts
25-Oct-20 09:14 47.648918 -114.019099 117 17616ft 273kts
25-Oct-20 09:16 47.596282 -113.912559 117 17620ft 274kts
25-Oct-20 09:16 47.558287 -113.835989 117 17477ft 277kts
25-Oct-20 09:17 47.512535 -113.743978 118 17481ft 276kts
25-Oct-20 09:18 47.466857 -113.652426 118 17474ft 277kts
25-Oct-20 09:19 47.421004 -113.560866 118 17473ft 277kts
25-Oct-20 09:20 47.375215 -113.469732 118 17546ft 275kts
25-Oct-20 09:21 47.329395 -113.378806 118 17545ft 277kts
25-Oct-20 09:22 47.283105 -113.287428 119 17548ft 278kts
25-Oct-20 09:23 47.236766 -113.195979 119 17548ft 279kts
25-Oct-20 09:24 47.190049 -113.104192 119 17546ft 279kts
25-Oct-20 09:25 47.143320 -113.012710 120 17550ft 279kts
25-Oct-20 09:26 47.096352 -112.921050 120 16751ft 285kts
25-Oct-20 09:27 47.048106 -112.827226 121 15477ft 285kts
25-Oct-20 09:28 47.000241 -112.734475 121 14210ft 283kts
25-Oct-20 09:29 46.952636 -112.642491 122 12950ft 279kts
25-Oct-20 09:30 46.909945 -112.560337 121 11809ft 236kts
25-Oct-20 09:31 46.871198 -112.485881 123 10791ft 226kts
25-Oct-20 09:32 46.829765 -112.416718 129 9886ft 222kts
25-Oct-20 09:33 46.820601 -112.330510 99 8840ft 224kts
25-Oct-20 09:34 46.800108 -112.245113 121 7912ft 218kts
25-Oct-20 09:35 46.761792 -112.178412 133 7230ft 218kts
25-Oct-20 09:36 46.717756 -112.124084 143 6447ft 198kts
25-Oct-20 09:37 46.674841 -112.077826 143 6063ft 180kts
25-Oct-20 09:38 46.638110 -112.035918 137 4907ft 166kts
25-Oct-20 09:39 46.627838 -111.975126 92 4808ft 157kts
25-Oct-20 09:40 46.623020 -111.926548 152 4572ft 94kts
25-Oct-20 09:41 46.599477 -111.941319 265 4221ft 100kts
25-Oct-20 09:42 46.604831 -111.974470 282 3854ft 65kts
25-Oct-20 09:43 46.605859 -111.984668 187 3854ft 0kts
25-Oct-20 09:44 46.605154 -111.984757 158 3857ft 7kts
25-Oct-20 09:45 46.603319 -111.983198 242 3863ft 6kts

Navigation Log

Ident Type
Flight plan parsing failed, navigation log unavailable